Ameagle, West Virginia
Current Conditions -  °F | °C
As of 8:51 AM on Thursday 18 Dec 2014 (Local Time) from KBKW Reporting Station
Overcast Overcast  
Wind Chill: 26°   Ceiling: 1400
Heat Index: 26°   Visibility: 10mi
Dew Point: 19°   Wind: 3mph
Humidity: 75%   Direction: 280°W
Pressure: 30.14"   Gusts: NA
Location:  37.95°N, 81.42°W
Report Text: KBKW 181351Z AUTO 28003KT 10SM OVC014 M03/M07 A3014 RMK AO2 SLP239 T10331072
Loading
Personal Weather Stations






























Interactive Weather Map New forecast layout! Learn more

10-Day Weather Forecast

Advertisements
Track Severe Weather on mobile